Time;durP1;ratioP1;P1;durP2;ratioP2;P2;SDS_P1;SDS_P2;PMS_P1;PMS_P2;Temp;Humidity;BMP_temperature;BMP_pressure;BME280_temperature;BME280_humidity;BME280_pressure;Samples;Min_cycle;Max_cycle;Signal;HPM_P1;HPM_P2
2023/06/16 00:01:38;;;;;;;7.75;5.75;;;16.90;82.40;;;;;;5017771;28;20038;-64
2023/06/16 00:04:04;;;;;;;16.45;5.75;;;16.80;83.00;;;;;;5031003;28;20029;-66
2023/06/16 00:06:31;;;;;;;11.80;5.70;;;16.60;84.00;;;;;;5029320;28;20034;-64
2023/06/16 00:08:58;;;;;;;7.00;5.43;;;16.50;84.70;;;;;;5026417;28;20176;-64
2023/06/16 00:11:26;;;;;;;12.38;5.43;;;16.50;85.30;;;;;;5031195;28;20042;-64
2023/06/16 00:13:51;;;;;;;6.97;5.40;;;16.50;85.60;;;;;;5031414;28;20167;-64
2023/06/16 00:16:19;;;;;;;8.48;5.35;;;16.50;86.80;;;;;;5004902;28;20132;-64
2023/06/16 00:18:49;;;;;;;7.00;4.95;;;16.30;87.20;;;;;;5012834;28;20034;-64
2023/06/16 00:21:19;;;;;;;7.25;5.40;;;16.20;88.30;;;;;;5030909;28;20083;-64
2023/06/16 00:23:46;;;;;;;7.43;5.65;;;16.20;88.50;;;;;;5031560;28;20091;-64
2023/06/16 00:26:12;;;;;;;8.35;5.70;;;16.20;88.60;;;;;;5022784;28;20049;-64
2023/06/16 00:28:38;;;;;;;10.48;6.13;;;16.20;89.10;;;;;;5024152;28;20050;-64
2023/06/16 00:31:04;;;;;;;7.15;5.60;;;16.20;89.10;;;;;;5030983;28;20045;-64
2023/06/16 00:33:30;;;;;;;8.98;5.43;;;16.10;89.30;;;;;;5022193;28;20042;-64
2023/06/16 00:35:56;;;;;;;8.30;5.47;;;15.80;90.00;;;;;;5032309;28;20033;-64
2023/06/16 00:38:21;;;;;;;7.25;5.72;;;15.70;90.60;;;;;;5034930;28;20041;-64
2023/06/16 00:40:47;;;;;;;9.45;5.90;;;15.60;91.20;;;;;;5031496;28;20049;-66
2023/06/16 00:43:12;;;;;;;6.72;5.47;;;15.60;91.50;;;;;;5016353;28;20052;-64
2023/06/16 00:45:38;;;;;;;10.20;5.93;;;15.60;91.80;;;;;;5031659;28;20033;-64
2023/06/16 00:48:05;;;;;;;8.50;5.78;;;15.60;91.90;;;;;;5034804;28;20041;-64
2023/06/16 00:50:31;;;;;;;10.15;5.90;;;15.70;92.10;;;;;;5003839;28;20060;-64
2023/06/16 00:52:57;;;;;;;7.63;5.55;;;15.70;92.20;;;;;;5011882;28;20041;-64
2023/06/16 00:55:23;;;;;;;10.63;6.25;;;15.70;92.30;;;;;;5034669;28;20096;-64
2023/06/16 00:57:50;;;;;;;8.18;5.40;;;15.80;92.60;;;;;;5021872;28;20448;-64
2023/06/16 01:00:17;;;;;;;8.45;5.60;;;15.60;92.40;;;;;;5033319;28;20112;-64
2023/06/16 01:02:44;;;;;;;6.97;5.47;;;15.50;92.60;;;;;;5034830;28;20052;-64
2023/06/16 01:05:11;;;;;;;8.35;5.30;;;15.40;93.10;;;;;;5028973;28;20046;-65
2023/06/16 01:08:00;;;;;;;12.60;5.95;;;15.30;93.10;;;;;;5023127;28;20045;-64
2023/06/16 01:10:36;;;;;;;6.97;5.93;;;15.20;94.10;;;;;;5030213;28;20040;-64
2023/06/16 01:13:20;;;;;;;7.40;6.00;;;15.20;93.90;;;;;;5034744;28;20099;-64
2023/06/16 01:15:47;;;;;;;9.15;6.10;;;15.20;94.60;;;;;;5026767;28;20034;-65
2023/06/16 01:18:15;;;;;;;9.60;6.45;;;15.10;94.20;;;;;;5031531;28;20052;-65
2023/06/16 01:21:01;;;;;;;9.10;6.35;;;15.20;94.20;;;;;;5034370;28;20124;-66
2023/06/16 01:23:54;;;;;;;11.25;6.65;;;15.30;95.10;;;;;;5024068;28;20046;-66
2023/06/16 01:26:22;;;;;;;9.40;6.20;;;15.20;95.30;;;;;;5031737;28;20037;-65
2023/06/16 01:28:49;;;;;;;8.25;5.70;;;15.20;94.20;;;;;;5033512;28;20553;-66
2023/06/16 01:31:17;;;;;;;11.77;6.45;;;15.10;94.60;;;;;;5031808;28;20042;-65
2023/06/16 01:33:45;;;;;;;12.80;6.80;;;15.10;94.80;;;;;;5022911;28;20041;-66
2023/06/16 01:36:12;;;;;;;10.05;6.60;;;15.00;95.00;;;;;;5040249;28;20041;-66
2023/06/16 01:38:39;;;;;;;12.45;7.13;;;15.00;95.40;;;;;;5016199;28;20376;-66
2023/06/16 01:41:05;;;;;;;7.80;6.68;;;14.90;95.50;;;;;;5027729;28;20059;-66
2023/06/16 01:43:32;;;;;;;10.73;6.82;;;14.90;95.60;;;;;;5027132;28;20427;-66
2023/06/16 01:45:59;;;;;;;9.57;6.35;;;14.90;95.70;;;;;;5033468;28;20069;-66
2023/06/16 01:48:25;;;;;;;9.68;6.43;;;14.90;95.90;;;;;;5015612;28;20487;-67
2023/06/16 01:50:51;;;;;;;12.18;6.25;;;14.80;96.30;;;;;;5026941;28;20121;-65
2023/06/16 01:53:17;;;;;;;11.85;7.13;;;14.70;96.40;;;;;;5028085;28;20403;-66
2023/06/16 01:55:50;;;;;;;10.85;7.20;;;14.70;96.40;;;;;;5034015;28;20561;-66
2023/06/16 01:58:17;;;;;;;10.23;7.00;;;14.60;97.00;;;;;;5028312;28;20033;-65
2023/06/16 02:00:52;;;;;;;9.63;7.00;;;14.60;96.60;;;;;;5024825;28;20091;-66
2023/06/16 02:03:44;;;;;;;13.70;6.70;;;14.50;97.00;;;;;;5033524;28;20060;-66
2023/06/16 02:06:17;;;;;;;12.15;7.10;;;14.50;97.10;;;;;;5012570;28;20079;-65
2023/06/16 02:08:45;;;;;;;9.00;6.85;;;14.50;97.30;;;;;;5012549;28;20037;-66
2023/06/16 02:11:11;;;;;;;9.73;7.03;;;14.50;97.10;;;;;;5033072;28;20072;-66
2023/06/16 02:13:37;;;;;;;11.70;6.85;;;14.50;97.20;;;;;;5027895;28;20041;-66
2023/06/16 02:16:03;;;;;;;9.52;6.78;;;14.50;97.20;;;;;;4998042;28;20515;-66
2023/06/16 02:18:32;;;;;;;9.70;7.00;;;14.40;97.50;;;;;;5028317;28;20037;-66
2023/06/16 02:20:58;;;;;;;12.45;7.10;;;14.30;97.80;;;;;;5033484;28;20037;-66
2023/06/16 02:23:24;;;;;;;9.63;6.10;;;14.30;97.90;;;;;;5027836;28;20042;-66
2023/06/16 02:25:50;;;;;;;13.20;6.93;;;14.30;98.00;;;;;;5031116;28;20041;-65
2023/06/16 02:28:16;;;;;;;12.07;6.82;;;14.20;97.90;;;;;;5033256;28;20142;-66
2023/06/16 02:30:42;;;;;;;11.25;7.57;;;14.20;98.00;;;;;;5025086;28;20038;-66
2023/06/16 02:33:08;;;;;;;11.07;7.43;;;14.20;98.20;;;;;;5022031;28;20068;-66
2023/06/16 02:35:33;;;;;;;11.65;7.45;;;14.30;98.30;;;;;;5028305;28;20037;-66
2023/06/16 02:38:00;;;;;;;8.95;6.93;;;14.30;98.40;;;;;;5019983;28;20042;-65
2023/06/16 02:40:25;;;;;;;12.25;6.95;;;14.20;98.60;;;;;;5013696;28;20463;-66
2023/06/16 02:42:51;;;;;;;10.48;7.28;;;14.20;98.50;;;;;;5031674;28;20132;-65
2023/06/16 02:45:16;;;;;;;10.75;7.60;;;14.20;98.80;;;;;;5033408;28;20116;-66
2023/06/16 02:47:42;;;;;;;13.63;8.95;;;14.10;98.90;;;;;;5013466;28;20033;-65
2023/06/16 02:50:08;;;;;;;12.88;8.82;;;14.10;98.90;;;;;;5024695;28;20059;-66
2023/06/16 02:52:35;;;;;;;12.98;8.60;;;14.20;99.30;;;;;;5014764;28;20046;-66
2023/06/16 02:55:01;;;;;;;14.73;9.50;;;14.20;99.00;;;;;;5029548;28;20048;-66
2023/06/16 02:57:27;;;;;;;11.68;8.68;;;14.30;98.80;;;;;;5020464;28;20030;-67
2023/06/16 02:59:55;;;;;;;12.40;8.77;;;14.30;98.90;;;;;;5031664;28;20506;-66
2023/06/16 03:02:20;;;;;;;12.07;9.38;;;14.30;98.80;;;;;;5048736;28;20056;-66
2023/06/16 03:04:46;;;;;;;13.50;9.85;;;14.40;99.00;;;;;;5031968;28;20045;-65
2023/06/16 03:07:12;;;;;;;14.80;9.73;;;14.30;99.10;;;;;;5033672;28;20036;-66
2023/06/16 03:09:38;;;;;;;16.77;9.75;;;14.40;99.00;;;;;;5031973;28;20045;-66
2023/06/16 03:12:04;;;;;;;14.68;9.52;;;14.40;98.90;;;;;;5008724;28;20067;-66
2023/06/16 03:14:32;;;;;;;16.80;9.65;;;14.50;98.80;;;;;;5024411;28;20043;-66
2023/06/16 03:16:58;;;;;;;13.90;9.38;;;14.50;98.80;;;;;;5014603;28;20088;-66
2023/06/16 03:19:23;;;;;;;14.70;9.52;;;14.50;98.90;;;;;;5031275;28;20488;-63
2023/06/16 03:21:50;;;;;;;13.30;8.95;;;14.50;99.00;;;;;;5024572;28;20029;-66
2023/06/16 03:24:18;;;;;;;12.48;9.00;;;14.30;99.30;;;;;;5031404;28;20425;-67
2023/06/16 03:26:44;;;;;;;12.00;9.40;;;14.30;99.70;;;;;;5030737;28;20037;-66
2023/06/16 03:29:12;;;;;;;12.85;9.90;;;14.20;99.60;;;;;;5021921;28;20088;-66
2023/06/16 03:31:38;;;;;;;12.43;9.32;;;14.20;99.70;;;;;;5025693;28;20061;-66
2023/06/16 03:34:03;;;;;;;15.52;9.52;;;14.20;99.90;;;;;;5026354;28;20088;-66
2023/06/16 03:36:36;;;;;;;11.68;9.23;;;14.10;99.90;;;;;;5015952;28;20037;-64
2023/06/16 03:39:05;;;;;;;14.25;9.70;;;14.20;99.90;;;;;;5032075;28;20045;-66
2023/06/16 03:41:34;;;;;;;15.90;9.73;;;14.10;99.90;;;;;;5035865;28;20380;-66
2023/06/16 03:44:00;;;;;;;17.08;10.15;;;14.10;99.90;;;;;;5012376;28;20484;-66
2023/06/16 03:46:31;;;;;;;13.00;9.10;;;14.20;99.90;;;;;;5009551;28;20038;-65
2023/06/16 03:48:57;;;;;;;13.02;9.95;;;14.10;99.90;;;;;;4997971;28;20407;-66
2023/06/16 03:51:24;;;;;;;14.25;10.52;;;14.20;99.90;;;;;;5031332;28;20068;-66
2023/06/16 03:53:51;;;;;;;14.75;10.90;;;14.30;99.90;;;;;;5026661;28;20033;-66
2023/06/16 03:56:17;;;;;;;15.07;10.00;;;14.30;99.90;;;;;;5034167;28;20487;-66
2023/06/16 03:58:42;;;;;;;17.15;10.50;;;14.40;99.90;;;;;;5032966;28;20077;-66
2023/06/16 04:01:09;;;;;;;14.13;10.05;;;14.40;99.90;;;;;;5032139;28;20080;-66
2023/06/16 04:03:35;;;;;;;16.15;10.38;;;14.50;99.90;;;;;;5019224;28;20046;-66
2023/06/16 04:06:01;;;;;;;16.35;11.13;;;14.50;99.90;;;;;;5027819;28;20037;-66
2023/06/16 04:08:27;;;;;;;16.50;10.68;;;14.50;99.90;;;;;;5013122;28;20065;-66
2023/06/16 04:10:57;;;;;;;17.48;10.75;;;14.50;99.90;;;;;;5024065;28;20123;-63
2023/06/16 04:13:23;;;;;;;15.18;11.30;;;14.60;99.90;;;;;;5021342;28;20052;-66
2023/06/16 04:15:49;;;;;;;13.38;10.93;;;14.60;99.90;;;;;;5030958;28;20042;-66
2023/06/16 04:18:15;;;;;;;17.38;12.45;;;14.60;99.90;;;;;;5023871;28;20029;-65
2023/06/16 04:20:41;;;;;;;15.40;11.23;;;14.70;99.90;;;;;;5027688;28;20511;-66
2023/06/16 04:23:09;;;;;;;17.77;11.48;;;14.80;99.90;;;;;;5031397;28;20071;-66
2023/06/16 04:25:38;;;;;;;18.05;12.00;;;14.90;99.90;;;;;;5024027;28;20034;-65
2023/06/16 04:28:05;;;;;;;18.17;11.85;;;14.90;99.90;;;;;;5020076;28;20091;-66
2023/06/16 04:30:33;;;;;;;16.13;12.48;;;14.90;99.90;;;;;;5023224;28;20061;-66
2023/06/16 04:33:01;;;;;;;16.33;12.02;;;14.90;99.90;;;;;;5022604;28;20057;-65
2023/06/16 04:35:29;;;;;;;14.95;12.02;;;15.00;99.90;;;;;;5028291;28;20416;-65
2023/06/16 04:37:56;;;;;;;15.15;12.43;;;15.00;99.90;;;;;;5020001;28;20079;-66
2023/06/16 04:40:23;;;;;;;16.95;11.90;;;15.10;99.90;;;;;;5029035;28;20045;-67
2023/06/16 04:42:49;;;;;;;15.65;12.15;;;15.20;99.90;;;;;;5031163;28;20137;-64
2023/06/16 04:45:15;;;;;;;15.23;12.40;;;15.20;99.90;;;;;;5020335;28;20047;-64
2023/06/16 04:47:42;;;;;;;16.23;12.30;;;15.20;99.90;;;;;;5026191;28;20041;-66
2023/06/16 04:50:09;;;;;;;18.77;12.88;;;15.20;99.90;;;;;;5030950;28;20034;-66
2023/06/16 04:52:38;;;;;;;16.83;12.27;;;15.20;99.90;;;;;;4970009;28;20698;-66
2023/06/16 04:55:05;;;;;;;17.50;12.93;;;15.20;99.90;;;;;;5026858;28;20040;-66
2023/06/16 04:57:35;;;;;;;17.85;12.93;;;15.20;99.90;;;;;;5029081;28;20048;-66
2023/06/16 05:00:03;;;;;;;19.05;13.10;;;15.20;99.90;;;;;;5020604;28;20037;-64
2023/06/16 05:02:29;;;;;;;16.08;13.07;;;15.20;99.90;;;;;;5009064;28;20052;-66
2023/06/16 05:04:55;;;;;;;16.40;12.80;;;15.30;99.90;;;;;;5026832;28;20037;-66
2023/06/16 05:07:21;;;;;;;17.40;13.68;;;15.40;99.90;;;;;;5011195;28;20038;-63
2023/06/16 05:09:46;;;;;;;16.08;13.27;;;15.50;99.90;;;;;;5020437;28;20090;-65
2023/06/16 05:12:12;;;;;;;17.83;14.10;;;15.50;99.90;;;;;;5020448;28;20056;-64
2023/06/16 05:14:38;;;;;;;18.13;14.30;;;15.60;99.90;;;;;;5021569;28;20041;-65
2023/06/16 05:17:03;;;;;;;17.40;14.02;;;15.60;99.90;;;;;;5012498;28;20053;-66
2023/06/16 05:19:30;;;;;;;20.80;14.15;;;15.70;99.90;;;;;;5013675;28;20473;-64
2023/06/16 05:21:55;;;;;;;18.63;13.30;;;15.70;99.90;;;;;;5026260;28;20041;-67
2023/06/16 05:24:21;;;;;;;18.88;13.13;;;15.80;99.90;;;;;;5027651;28;20095;-67
2023/06/16 05:26:46;;;;;;;18.95;14.38;;;15.90;99.90;;;;;;5007273;28;20472;-66
2023/06/16 05:29:12;;;;;;;18.65;14.10;;;15.90;99.90;;;;;;5015487;28;20678;-64
2023/06/16 05:31:38;;;;;;;25.63;16.98;;;16.00;99.90;;;;;;5029120;28;20117;-64
2023/06/16 05:34:03;;;;;;;23.15;13.85;;;16.00;99.90;;;;;;5012459;28;20391;-67
2023/06/16 05:36:30;;;;;;;18.25;13.93;;;16.10;99.90;;;;;;5025318;28;20116;-66
2023/06/16 05:38:56;;;;;;;17.60;13.85;;;16.20;99.90;;;;;;5015617;28;20045;-67
2023/06/16 05:41:24;;;;;;;22.77;15.60;;;16.30;99.90;;;;;;5020430;28;20055;-66
2023/06/16 05:43:54;;;;;;;16.35;13.20;;;16.30;99.90;;;;;;5022937;28;20045;-66
2023/06/16 05:46:19;;;;;;;20.65;14.32;;;16.40;99.90;;;;;;5028619;28;20045;-67
2023/06/16 05:48:45;;;;;;;19.73;14.57;;;16.50;99.90;;;;;;5016520;28;20029;-66
2023/06/16 05:51:11;;;;;;;19.67;14.77;;;16.60;99.90;;;;;;4987518;28;20041;-64
2023/06/16 05:53:36;;;;;;;18.15;15.18;;;16.70;99.90;;;;;;4996061;28;20068;-67
2023/06/16 05:56:02;;;;;;;19.70;14.45;;;16.80;99.90;;;;;;5022726;28;20055;-67
2023/06/16 05:58:28;;;;;;;18.65;14.32;;;16.80;99.90;;;;;;4995360;28;20898;-68
2023/06/16 06:00:53;;;;;;;19.55;14.15;;;16.90;99.90;;;;;;5012198;28;20123;-66
2023/06/16 06:03:19;;;;;;;23.20;14.85;;;17.00;99.90;;;;;;5024019;28;20469;-64
2023/06/16 06:05:44;;;;;;;19.15;13.93;;;17.10;99.90;;;;;;5034354;28;20037;-66
2023/06/16 06:08:10;;;;;;;18.92;14.30;;;17.20;99.90;;;;;;5025137;28;20510;-66
2023/06/16 06:10:36;;;;;;;19.45;13.65;;;17.30;99.90;;;;;;5024114;28;20666;-66
2023/06/16 06:13:05;;;;;;;18.67;14.73;;;17.40;99.90;;;;;;5032970;28;20045;-66
2023/06/16 06:15:30;;;;;;;19.13;13.88;;;17.50;99.90;;;;;;5023376;28;20048;-66
2023/06/16 06:17:56;;;;;;;17.67;13.35;;;17.60;99.90;;;;;;5017349;28;20037;-67
2023/06/16 06:20:22;;;;;;;24.80;14.15;;;17.70;99.90;;;;;;5015588;28;20073;-65
2023/06/16 06:22:47;;;;;;;16.90;13.38;;;17.80;99.90;;;;;;5033312;28;20045;-66
2023/06/16 06:25:13;;;;;;;16.35;12.65;;;17.90;99.90;;;;;;5026370;28;20037;-67
2023/06/16 06:27:40;;;;;;;18.90;13.50;;;18.00;99.90;;;;;;5032297;28;20033;-66
2023/06/16 06:30:06;;;;;;;17.15;12.45;;;18.00;99.90;;;;;;5015083;28;20045;-67
2023/06/16 06:32:32;;;;;;;14.90;12.27;;;18.10;99.90;;;;;;5026129;28;20042;-67
2023/06/16 06:34:57;;;;;;;15.77;12.13;;;18.20;99.90;;;;;;5026067;28;20409;-66
2023/06/16 06:37:29;;;;;;;14.32;11.85;;;18.30;99.90;;;;;;5040575;28;20059;-67
2023/06/16 06:39:55;;;;;;;14.50;11.95;;;18.40;99.90;;;;;;5035523;28;20048;-66
2023/06/16 06:42:21;;;;;;;15.73;12.02;;;18.40;99.90;;;;;;5032942;28;20041;-66
2023/06/16 06:44:47;;;;;;;20.50;11.18;;;18.50;99.90;;;;;;5038796;28;20487;-67
2023/06/16 06:47:12;;;;;;;15.80;10.90;;;18.50;99.90;;;;;;5028982;28;20094;-67
2023/06/16 06:49:38;;;;;;;16.42;11.50;;;18.60;99.90;;;;;;5028837;28;20041;-67
2023/06/16 06:52:04;;;;;;;16.17;12.00;;;18.70;99.90;;;;;;5032291;28;20034;-67
2023/06/16 06:54:30;;;;;;;17.70;12.18;;;18.80;99.90;;;;;;5014813;28;20041;-67
2023/06/16 06:56:55;;;;;;;18.75;11.65;;;18.80;99.90;;;;;;5027352;28;20071;-67
2023/06/16 06:59:21;;;;;;;17.50;11.88;;;18.90;99.90;;;;;;5020819;28;20041;-66
2023/06/16 07:01:46;;;;;;;16.65;12.10;;;19.00;99.90;;;;;;5013114;28;20030;-67
2023/06/16 07:04:12;;;;;;;17.75;13.20;;;19.00;99.90;;;;;;5032623;28;20103;-66
2023/06/16 07:06:37;;;;;;;15.77;11.77;;;19.10;99.90;;;;;;5021992;28;20037;-66
2023/06/16 07:09:03;;;;;;;16.67;12.50;;;19.20;99.90;;;;;;5031334;28;20029;-67
2023/06/16 07:11:29;;;;;;;15.73;12.60;;;19.40;99.90;;;;;;5017360;28;20034;-67
2023/06/16 07:37:50;;;;;;;13.50;9.80;;;20.10;98.00;;;;;;5035127;22;20049;-71
2023/06/16 07:40:15;;;;;;;18.98;10.60;;;20.20;97.60;;;;;;5005769;28;20048;-71
2023/06/16 07:42:45;;;;;;;12.48;10.65;;;20.30;97.40;;;;;;5007396;28;20045;-71
2023/06/16 07:53:14;;;;;;;12.85;10.27;;;20.60;96.30;;;;;;5817578;22;20046;-73
2023/06/16 07:58:15;;;;;;;12.50;10.65;;;20.70;96.10;;;;;;5729831;22;20059;-71
2023/06/16 08:00:41;;;;;;;15.02;11.52;;;20.80;95.80;;;;;;4994550;28;20030;-71
2023/06/16 08:13:28;;;;;;;15.77;10.93;;;21.20;95.80;;;;;;6140380;22;20035;-65
2023/06/16 08:15:54;;;;;;;12.95;8.82;;;21.20;95.50;;;;;;5022239;28;20508;-66
2023/06/16 08:18:19;;;;;;;13.95;10.30;;;21.30;94.70;;;;;;5027550;28;20036;-64
2023/06/16 08:20:45;;;;;;;12.27;9.68;;;21.40;94.60;;;;;;5035480;28;20029;-65
2023/06/16 08:23:11;;;;;;;14.25;9.27;;;21.50;94.70;;;;;;5032670;28;20045;-65
2023/06/16 08:25:37;;;;;;;10.02;8.98;;;21.60;94.50;;;;;;5036429;28;20030;-65
2023/06/16 08:28:03;;;;;;;14.68;8.50;;;21.60;94.20;;;;;;5102183;22;20038;-73
2023/06/16 08:30:28;;;;;;;10.48;8.30;;;21.70;94.00;;;;;;5017534;28;20041;-71
2023/06/16 08:32:55;;;;;;;9.93;8.05;;;21.80;93.60;;;;;;5013986;28;20051;-72
2023/06/16 08:35:21;;;;;;;10.98;7.90;;;21.80;93.00;;;;;;5013716;28;20414;-71
2023/06/16 08:37:47;;;;;;;9.15;7.47;;;21.90;93.00;;;;;;4995554;28;20052;-71
2023/06/16 08:40:13;;;;;;;9.30;8.25;;;21.90;93.00;;;;;;5004091;28;20411;-72
2023/06/16 08:46:01;;;;;;;11.82;7.63;;;22.20;92.90;;;;;;5392513;22;20050;-72
2023/06/16 08:48:26;;;;;;;10.07;8.25;;;22.30;93.40;;;;;;4994277;28;20040;-72
2023/06/16 08:56:36;;;;;;;14.07;7.55;;;22.40;91.80;;;;;;5715866;22;20060;-73
2023/06/16 08:59:03;;;;;;;12.95;7.80;;;22.50;91.80;;;;;;5020252;28;20120;-73
2023/06/16 09:01:30;;;;;;;8.45;7.22;;;22.50;91.70;;;;;;5051297;28;20087;-73
2023/06/16 09:03:56;;;;;;;8.90;7.70;;;22.60;91.10;;;;;;5033506;28;20037;-73
2023/06/16 09:06:22;;;;;;;9.43;7.65;;;22.70;91.10;;;;;;5012013;28;20491;-73
2023/06/16 09:25:00;;;;;;;14.15;7.60;;;23.30;90.00;;;;;;6112315;22;20008;-71
2023/06/16 09:30:36;;;;;;;7.78;6.97;;;23.50;85.00;;;;;;5996014;22;20128;-71
2023/06/16 09:33:02;;;;;;;8.80;6.75;;;23.50;86.20;;;;;;5026381;28;20041;-71
2023/06/16 09:35:30;;;;;;;11.25;7.35;;;23.60;86.80;;;;;;5037177;28;20274;-71
2023/06/16 09:48:17;;;;;;;7.85;7.03;;;23.90;86.20;;;;;;5186393;22;20041;-71
2023/06/16 09:50:43;;;;;;;15.15;6.65;;;23.90;84.30;;;;;;5015561;28;20116;-71
2023/06/16 10:03:32;;;;;;;9.35;5.90;;;24.10;77.70;;;;;;5051240;22;20271;-64
2023/06/16 10:06:03;;;;;;;7.90;5.88;;;24.00;76.90;;;;;;5032549;28;20045;-65
2023/06/16 10:08:28;;;;;;;9.15;6.70;;;24.20;76.20;;;;;;5033462;28;20091;-64
2023/06/16 10:10:54;;;;;;;8.57;6.82;;;24.10;76.90;;;;;;5021253;28;20037;-64
2023/06/16 10:13:22;;;;;;;8.45;6.68;;;24.40;77.90;;;;;;5021282;28;20033;-65
2023/06/16 10:15:50;;;;;;;9.00;6.53;;;24.50;77.00;;;;;;5015619;28;20056;-64
2023/06/16 10:28:37;;;;;;;9.10;6.38;;;24.80;76.10;;;;;;5976930;22;20046;-66
2023/06/16 10:31:04;;;;;;;7.68;6.45;;;24.80;74.80;;;;;;5032434;28;20391;-66
2023/06/16 10:33:54;;;;;;;9.57;5.85;;;24.90;75.10;;;;;;5019852;28;20041;-65
2023/06/16 10:36:39;;;;;;;7.30;6.25;;;24.90;72.70;;;;;;5037425;28;20072;-66
2023/06/16 10:39:12;;;;;;;7.05;5.88;;;25.00;70.70;;;;;;5038665;28;20037;-66
2023/06/16 10:41:54;;;;;;;7.78;5.57;;;25.00;71.40;;;;;;5035704;28;20033;-66
2023/06/16 10:44:28;;;;;;;10.15;5.65;;;25.00;69.50;;;;;;5037163;28;20045;-66
2023/06/16 10:47:25;;;;;;;7.88;5.90;;;25.00;68.40;;;;;;5033567;28;20491;-67
2023/06/16 10:50:00;;;;;;;6.70;5.43;;;25.00;66.70;;;;;;5042221;28;20104;-66
2023/06/16 10:52:28;;;;;;;6.32;5.18;;;25.20;68.60;;;;;;5032096;28;20384;-66
2023/06/16 10:54:55;;;;;;;7.65;6.00;;;25.20;67.70;;;;;;5043323;28;20044;-66
2023/06/16 10:57:22;;;;;;;10.48;5.55;;;25.20;66.90;;;;;;5039297;28;20037;-66
2023/06/16 10:59:57;;;;;;;8.25;5.47;;;25.20;66.50;;;;;;5032795;28;20042;-66
2023/06/16 11:02:33;;;;;;;7.20;4.82;;;25.30;64.30;;;;;;5036914;28;20138;-66
2023/06/16 11:05:07;;;;;;;6.30;5.20;;;25.30;62.10;;;;;;5037282;28;20503;-67
2023/06/16 11:07:40;;;;;;;6.30;4.65;;;25.40;62.70;;;;;;5026064;28;20172;-66
2023/06/16 11:10:10;;;;;;;9.05;4.90;;;25.50;61.00;;;;;;5024857;28;20407;-66
2023/06/16 11:12:37;;;;;;;6.20;4.33;;;25.70;62.10;;;;;;5040783;28;20045;-66
2023/06/16 11:15:04;;;;;;;5.10;3.67;;;25.60;58.50;;;;;;5038217;28;20363;-66
2023/06/16 11:17:31;;;;;;;7.35;4.53;;;25.50;58.40;;;;;;5012654;28;20048;-65
2023/06/16 11:19:58;;;;;;;6.63;4.57;;;25.60;59.50;;;;;;5036392;28;20123;-65
2023/06/16 11:22:29;;;;;;;6.28;4.93;;;25.60;59.70;;;;;;5040620;28;20045;-65
2023/06/16 11:24:55;;;;;;;6.55;4.88;;;25.70;60.00;;;;;;5011542;28;20171;-67
2023/06/16 11:27:21;;;;;;;5.60;4.25;;;25.80;60.00;;;;;;5038002;28;20045;-66
2023/06/16 11:29:47;;;;;;;5.82;4.45;;;25.80;58.70;;;;;;5041725;28;20479;-66
2023/06/16 11:32:16;;;;;;;6.63;4.22;;;25.70;56.10;;;;;;5011634;28;20033;-66
2023/06/16 11:34:42;;;;;;;6.35;4.30;;;25.70;56.10;;;;;;5026809;28;20471;-65
2023/06/16 11:37:08;;;;;;;5.20;3.55;;;25.70;55.30;;;;;;5033681;28;20044;-65
2023/06/16 11:39:43;;;;;;;11.68;4.68;;;25.50;55.40;;;;;;5017592;28;20444;-66
2023/06/16 11:42:15;;;;;;;5.40;4.45;;;25.70;55.70;;;;;;5013152;28;20060;-65
2023/06/16 11:44:42;;;;;;;5.43;4.55;;;25.70;56.60;;;;;;5028507;28;20033;-65
2023/06/16 11:47:09;;;;;;;6.32;4.38;;;25.70;57.60;;;;;;5031358;28;20698;-66
2023/06/16 11:49:36;;;;;;;4.90;3.55;;;25.70;56.00;;;;;;5036238;28;20041;-66
2023/06/16 11:52:06;;;;;;;5.55;4.43;;;26.00;56.90;;;;;;5019619;28;20041;-66
2023/06/16 11:54:33;;;;;;;6.35;4.28;;;26.10;56.40;;;;;;5029281;28;20064;-66
2023/06/16 11:56:59;;;;;;;9.80;4.07;;;26.10;54.20;;;;;;5021617;28;20037;-66
2023/06/16 11:59:30;;;;;;;5.55;3.95;;;26.00;53.80;;;;;;5027472;28;20056;-65
2023/06/16 12:02:01;;;;;;;7.68;4.38;;;26.10;54.20;;;;;;5031047;28;20411;-65
2023/06/16 12:04:27;;;;;;;5.97;4.20;;;26.20;55.50;;;;;;5031517;28;20084;-65
2023/06/16 12:06:56;;;;;;;5.95;4.53;;;26.10;55.40;;;;;;5028415;28;20041;-65
2023/06/16 12:09:22;;;;;;;5.97;4.45;;;26.10;55.00;;;;;;5028369;28;20423;-66
2023/06/16 12:11:48;;;;;;;6.93;4.32;;;26.30;55.10;;;;;;5031176;28;20049;-66
2023/06/16 12:14:21;;;;;;;6.47;4.65;;;26.50;55.70;;;;;;5028014;28;20033;-66
2023/06/16 12:16:50;;;;;;;4.43;4.00;;;26.80;54.80;;;;;;5027100;28;20112;-66
2023/06/16 12:19:19;;;;;;;8.73;4.40;;;26.90;53.90;;;;;;5031050;28;20041;-66
2023/06/16 12:21:58;;;;;;;7.78;4.78;;;26.90;53.90;;;;;;5013135;28;20076;-66
2023/06/16 12:24:25;;;;;;;6.78;4.40;;;26.90;51.70;;;;;;5018901;28;20073;-67
2023/06/16 12:26:53;;;;;;;5.00;4.20;;;27.00;52.90;;;;;;5027266;28;21088;-67
2023/06/16 12:29:20;;;;;;;11.38;4.30;;;26.90;52.40;;;;;;5025009;28;20084;-67
2023/06/16 12:32:12;;;;;;;6.03;4.28;;;26.80;53.10;;;;;;5006817;28;20034;-66
2023/06/16 12:34:38;;;;;;;5.22;3.75;;;26.90;49.20;;;;;;5025580;28;20390;-65
2023/06/16 12:37:06;;;;;;;5.82;4.50;;;27.00;51.80;;;;;;5047655;28;20041;-66
2023/06/16 12:39:37;;;;;;;7.00;4.50;;;27.20;52.10;;;;;;5012865;28;20042;-65
2023/06/16 12:42:05;;;;;;;7.75;4.22;;;27.40;52.00;;;;;;5013330;28;20033;-65
2023/06/16 12:44:48;;;;;;;5.90;4.45;;;27.40;51.60;;;;;;5022326;28;20037;-67
2023/06/16 12:47:18;;;;;;;5.07;3.97;;;27.10;49.80;;;;;;5021253;28;20045;-66
2023/06/16 12:49:44;;;;;;;8.25;4.43;;;27.20;52.30;;;;;;5017286;28;20076;-66
2023/06/16 12:52:12;;;;;;;6.63;4.13;;;27.20;52.60;;;;;;5031205;28;20041;-67
2023/06/16 12:54:37;;;;;;;7.30;4.20;;;27.20;51.90;;;;;;5031207;28;20034;-67
2023/06/16 12:57:03;;;;;;;7.47;4.47;;;27.20;51.10;;;;;;5000641;28;20077;-65
2023/06/16 12:59:29;;;;;;;6.22;4.25;;;27.20;50.60;;;;;;5019209;28;20592;-64
2023/06/16 13:01:55;;;;;;;6.30;4.57;;;27.20;50.50;;;;;;5001598;28;20064;-65
2023/06/16 13:04:21;;;;;;;5.15;4.15;;;27.10;50.20;;;;;;5027039;28;20042;-66
2023/06/16 13:06:47;;;;;;;11.02;4.40;;;27.10;50.90;;;;;;5018853;28;20064;-66
2023/06/16 13:09:13;;;;;;;5.80;4.07;;;27.00;50.90;;;;;;5030484;28;20034;-66
2023/06/16 13:11:39;;;;;;;6.63;4.38;;;27.10;50.20;;;;;;5031150;28;20069;-66
2023/06/16 13:14:05;;;;;;;6.55;4.15;;;27.20;50.10;;;;;;5010267;28;20040;-68
2023/06/16 13:16:32;;;;;;;6.00;4.30;;;27.40;50.10;;;;;;5018463;28;20041;-67
2023/06/16 13:18:58;;;;;;;8.45;3.97;;;27.60;50.30;;;;;;5036336;28;20120;-68
2023/06/16 13:21:24;;;;;;;5.53;4.30;;;27.90;49.90;;;;;;5034485;28;20492;-68
2023/06/16 13:23:50;;;;;;;5.70;4.45;;;28.00;50.60;;;;;;5024092;28;20037;-67
2023/06/16 13:26:20;;;;;;;5.75;4.13;;;28.10;49.80;;;;;;5035685;28;20033;-68
2023/06/16 13:28:47;;;;;;;7.27;4.70;;;28.00;50.10;;;;;;5020767;28;20045;-68
2023/06/16 13:31:13;;;;;;;5.65;4.00;;;27.90;49.80;;;;;;5033688;28;20338;-68
2023/06/16 13:33:39;;;;;;;5.45;4.05;;;28.10;49.70;;;;;;5038191;28;20052;-67
2023/06/16 13:36:05;;;;;;;6.22;4.40;;;28.00;49.00;;;;;;5040289;28;20072;-68
2023/06/16 13:38:31;;;;;;;8.10;4.28;;;27.90;49.10;;;;;;5031619;28;20412;-68
2023/06/16 13:40:57;;;;;;;6.38;4.38;;;27.90;49.00;;;;;;5039353;28;20488;-68
2023/06/16 13:43:23;;;;;;;8.80;4.18;;;27.90;49.10;;;;;;5043946;28;20033;-67
2023/06/16 13:45:48;;;;;;;6.15;4.38;;;28.00;48.30;;;;;;5034782;28;20459;-67
2023/06/16 13:48:15;;;;;;;6.82;4.15;;;28.00;48.40;;;;;;5039240;28;20060;-67
2023/06/16 13:50:41;;;;;;;6.40;3.90;;;28.00;47.70;;;;;;5042095;28;20037;-67
2023/06/16 13:53:09;;;;;;;5.28;4.07;;;27.90;47.00;;;;;;5042639;28;20053;-68
2023/06/16 13:55:35;;;;;;;7.68;4.20;;;27.90;47.30;;;;;;5029446;28;20045;-68
2023/06/16 13:58:00;;;;;;;6.03;4.10;;;28.20;47.90;;;;;;5038644;28;20038;-65
2023/06/16 14:00:26;;;;;;;5.13;4.15;;;28.20;47.60;;;;;;5036501;28;20442;-68
2023/06/16 14:02:53;;;;;;;5.28;4.15;;;28.50;47.50;;;;;;5036720;28;20045;-68
2023/06/16 14:05:19;;;;;;;5.13;4.00;;;28.60;48.20;;;;;;5022459;28;20030;-68
2023/06/16 14:07:45;;;;;;;7.50;3.90;;;28.50;46.10;;;;;;5030832;28;20079;-67
2023/06/16 14:10:11;;;;;;;5.45;3.88;;;28.70;46.00;;;;;;5013388;28;20033;-67
2023/06/16 14:12:36;;;;;;;5.82;4.20;;;28.60;46.10;;;;;;5018759;28;20087;-67
2023/06/16 14:15:03;;;;;;;5.63;4.05;;;28.60;45.70;;;;;;5035220;28;20034;-68
2023/06/16 14:17:29;;;;;;;4.90;4.05;;;28.90;45.60;;;;;;5039699;28;20056;-68
2023/06/16 14:19:55;;;;;;;7.53;4.03;;;29.10;45.20;;;;;;5031188;28;20034;-68
2023/06/16 14:22:20;;;;;;;6.53;4.10;;;29.00;44.60;;;;;;5009889;28;20034;-67
2023/06/16 14:24:46;;;;;;;4.10;3.65;;;29.10;45.00;;;;;;5032702;28;20049;-64